ADDS METAR Data

Data at: 0715 UTC 16 Jan 2018

METAR for:KORD (Chicago/O'Hare Intl, IL, US)
Text:KORD 160651Z 27010KT 1 3/4SM -SN OVC020 M12/M15 A3032 RMK AO2 SLP280 P0000 T11221150 $
Temperature:-12.2°C ( 10°F)
Dewpoint:-15.0°C ( 5°F) [RH = 80%]
Pressure (altimeter):30.32 inches Hg (1026.8 mb) [Sea level pressure: 1028.0 mb]
Winds:from the W (270 degrees) at 12 MPH (10 knots; 5.1 m/s)
Visibility: 1.75 sm ( 2.82 km)
Ceiling:2000 feet AGL
Clouds: overcast cloud deck at 2000 feet AGL
Weather:-SN (light snow)
QC Flag:SOME DATA ABOVE MAY BE INACCURATE!!!"$" is an indication the sensor requires maintenance.